createdAt,value
2018-07-12T00:00:02.448Z,15.2
2018-07-12T00:15:02.815Z,15.2
2018-07-12T00:30:03.310Z,15.1
2018-07-12T00:45:02.661Z,15.1
2018-07-12T01:00:02.957Z,15.1
2018-07-12T01:15:02.279Z,15
2018-07-12T01:30:02.716Z,14.9
2018-07-12T01:45:03.082Z,14.9
2018-07-12T02:00:02.440Z,14.8
2018-07-12T02:15:02.772Z,14.8
2018-07-12T02:30:03.275Z,14.7
2018-07-12T02:45:02.606Z,14.6
2018-07-12T03:00:02.883Z,14.6
2018-07-12T03:15:03.225Z,14.5
2018-07-12T03:30:02.668Z,14.5
2018-07-12T03:45:02.988Z,14.4
2018-07-12T04:00:02.349Z,14.4
2018-07-12T04:15:02.684Z,14.3
2018-07-12T04:30:03.090Z,14.3
2018-07-12T04:45:02.422Z,14.2
2018-07-12T05:00:02.811Z,14.2
2018-07-12T05:15:03.181Z,14.2
2018-07-12T05:30:02.560Z,14.1
2018-07-12T05:45:02.892Z,14.1
2018-07-12T06:00:03.235Z,14.1
2018-07-12T06:15:02.550Z,14.1
2018-07-12T06:30:03.141Z,14.1
2018-07-12T06:45:02.550Z,14.1
2018-07-12T07:00:02.873Z,14.1
2018-07-12T07:15:03.216Z,14.1
2018-07-12T07:30:02.670Z,14.1
2018-07-12T07:45:02.955Z,14.1
2018-07-12T08:00:02.297Z,14.1
2018-07-12T08:15:02.615Z,14.1
2018-07-12T08:30:03.125Z,14.2
2018-07-12T08:45:02.507Z,14.2
2018-07-12T09:00:02.821Z,14.3
2018-07-12T09:15:03.201Z,14.3
2018-07-12T09:30:02.589Z,14.4
2018-07-12T09:45:02.885Z,14.4
2018-07-12T10:00:03.230Z,14.4
2018-07-12T10:15:02.555Z,14.4
2018-07-12T10:30:02.974Z,14.5
2018-07-12T10:45:02.317Z,14.6
2018-07-12T11:00:02.602Z,14.6
2018-07-12T11:15:02.900Z,14.6
2018-07-12T11:30:02.295Z,14.7
2018-07-12T11:45:02.615Z,14.8
2018-07-12T12:00:02.952Z,14.8
2018-07-12T12:15:03.323Z,14.9
2018-07-12T12:30:02.720Z,14.9
2018-07-12T12:45:03.046Z,15
2018-07-12T13:00:02.445Z,15.1
2018-07-12T13:15:02.776Z,15.1
2018-07-12T13:30:03.176Z,15.2
2018-07-12T13:45:02.511Z,15.3
2018-07-12T14:00:02.856Z,15.4
2018-07-12T14:15:03.202Z,15.5
2018-07-12T14:30:02.676Z,15.6
2018-07-12T14:45:02.983Z,15.6
2018-07-12T15:00:02.361Z,15.6
2018-07-12T15:15:02.664Z,15.8
2018-07-12T15:30:03.085Z,15.9
2018-07-12T15:45:02.448Z,15.9
2018-07-12T16:00:02.799Z,16
2018-07-12T16:15:03.085Z,16.1
2018-07-12T16:30:02.564Z,16.1
2018-07-12T16:45:02.972Z,16.1
2018-07-12T17:00:02.305Z,16.2
2018-07-12T17:15:02.694Z,16.2
2018-07-12T17:30:03.111Z,16.1
2018-07-12T17:45:02.442Z,16.2
2018-07-12T18:00:02.768Z,16.1
2018-07-12T18:15:03.072Z,16.1
2018-07-12T18:30:02.499Z,16.1
2018-07-12T18:45:02.845Z,16.1
2018-07-12T19:00:03.187Z,16.1
2018-07-12T19:15:02.556Z,16.1
2018-07-12T19:30:02.955Z,16.1
2018-07-12T19:45:02.265Z,16.1
2018-07-12T20:00:02.585Z,16
2018-07-12T20:15:02.874Z,16
2018-07-12T20:30:02.252Z,15.9
2018-07-12T20:45:02.668Z,15.9
2018-07-12T21:00:03.012Z,15.9
2018-07-12T21:15:02.422Z,15.9
2018-07-12T21:30:02.797Z,15.8
2018-07-12T21:45:03.110Z,15.8
2018-07-12T22:00:02.463Z,15.7
2018-07-12T22:15:02.757Z,15.7
2018-07-12T22:30:03.178Z,15.6
2018-07-12T22:45:02.510Z,15.6
2018-07-12T23:00:02.791Z,15.5
2018-07-12T23:15:03.122Z,15.4
2018-07-12T23:30:02.480Z,15.4
2018-07-12T23:45:02.778Z,15.3
